Time;durP1;ratioP1;P1;durP2;ratioP2;P2;SDS_P1;SDS_P2;PMS_P1;PMS_P2;Temp;Humidity;BMP_temperature;BMP_pressure;BME280_temperature;BME280_humidity;BME280_pressure;Samples;Min_cycle;Max_cycle;Signal;HPM_P1;HPM_P2
2022/03/28 00:01:19;;;;;;;16.30;9.53;;;5.50;77.00;;;;;;5063184;28;20478;-48
2022/03/28 00:03:46;;;;;;;17.60;8.03;;;5.50;76.60;;;;;;5050095;28;20908;-48
2022/03/28 00:06:13;;;;;;;20.77;9.43;;;5.60;75.60;;;;;;5059702;28;20517;-49
2022/03/28 00:08:40;;;;;;;14.17;8.80;;;5.50;75.90;;;;;;5055488;28;20493;-48
2022/03/28 00:11:07;;;;;;;18.07;8.50;;;5.50;76.00;;;;;;5059644;28;20519;-48
2022/03/28 00:13:34;;;;;;;22.30;9.33;;;5.50;75.10;;;;;;5061625;28;20907;-48
2022/03/28 00:16:01;;;;;;;13.60;8.73;;;5.50;75.70;;;;;;5051182;28;20856;-48
2022/03/28 00:18:29;;;;;;;15.40;9.10;;;5.50;75.30;;;;;;5052794;28;20984;-48
2022/03/28 00:20:56;;;;;;;18.03;9.20;;;5.60;75.50;;;;;;5061470;28;20485;-48
2022/03/28 00:23:24;;;;;;;19.33;9.40;;;5.60;75.90;;;;;;5059125;28;20487;-48
2022/03/28 00:25:51;;;;;;;10.00;7.57;;;5.50;75.40;;;;;;5063060;28;20508;-50
2022/03/28 00:28:18;;;;;;;23.03;8.80;;;5.50;74.90;;;;;;5061705;28;20939;-48
2022/03/28 00:30:45;;;;;;;22.43;10.80;;;5.40;75.10;;;;;;5063261;28;20481;-48
2022/03/28 00:33:12;;;;;;;14.70;9.37;;;5.20;75.70;;;;;;5062723;28;20455;-48
2022/03/28 00:35:40;;;;;;;21.63;8.90;;;5.20;75.90;;;;;;5062503;28;20580;-49
2022/03/28 00:38:07;;;;;;;12.90;8.37;;;5.20;76.50;;;;;;5063955;28;20506;-48
2022/03/28 00:40:34;;;;;;;16.23;9.70;;;5.20;76.10;;;;;;5062592;28;20879;-48
2022/03/28 00:43:03;;;;;;;16.40;7.40;;;5.10;75.50;;;;;;5063220;28;20487;-48
2022/03/28 00:45:31;;;;;;;14.57;8.47;;;5.20;75.30;;;;;;5065810;28;20492;-49
2022/03/28 00:47:58;;;;;;;18.10;9.30;;;5.10;75.70;;;;;;5063903;28;20997;-48
2022/03/28 00:50:24;;;;;;;24.53;10.50;;;5.10;76.10;;;;;;5061315;28;20525;-49
2022/03/28 00:52:53;;;;;;;40.20;22.20;;;5.10;75.70;;;;;;5052323;28;20486;-48
2022/03/28 00:55:19;;;;;;;19.70;11.60;;;5.10;75.80;;;;;;5060865;28;20483;-49
2022/03/28 00:57:46;;;;;;;22.27;9.07;;;5.10;76.00;;;;;;5056719;28;20485;-49
2022/03/28 01:00:14;;;;;;;14.63;9.00;;;5.00;76.20;;;;;;5031559;28;20527;-48
2022/03/28 01:02:41;;;;;;;14.70;8.33;;;5.00;75.90;;;;;;5050224;28;20974;-49
2022/03/28 01:05:09;;;;;;;24.23;9.20;;;5.00;75.70;;;;;;5030165;28;20480;-48
2022/03/28 01:07:37;;;;;;;13.10;8.80;;;5.00;75.30;;;;;;5048777;28;20567;-48
2022/03/28 01:10:06;;;;;;;18.43;10.20;;;4.90;76.00;;;;;;5059166;28;21033;-48
2022/03/28 01:12:34;;;;;;;16.57;9.20;;;4.70;76.40;;;;;;5048989;28;20494;-47
2022/03/28 01:15:02;;;;;;;15.27;9.60;;;4.70;77.10;;;;;;5060126;28;20472;-48
2022/03/28 01:20:13;;;;;;;17.30;8.63;;;4.70;77.00;;;;;;5063087;28;20516;-48
2022/03/28 01:22:41;;;;;;;13.40;9.00;;;;;;;;;;5038706;28;20539;-49
2022/03/28 01:25:09;;;;;;;33.13;11.00;;;4.70;76.40;;;;;;5055522;28;20496;-48
2022/03/28 01:27:38;;;;;;;15.70;8.97;;;4.60;76.30;;;;;;5060936;28;20480;-47
2022/03/28 01:30:06;;;;;;;21.53;9.03;;;4.50;76.50;;;;;;5061502;28;20481;-48
2022/03/28 01:32:33;;;;;;;14.90;9.50;;;4.30;77.60;;;;;;5066680;28;20485;-49
2022/03/28 01:35:00;;;;;;;17.40;9.73;;;4.30;79.00;;;;;;5037995;28;20576;-48
2022/03/28 01:37:26;;;;;;;22.90;9.70;;;4.30;78.60;;;;;;5059888;28;21075;-48
2022/03/28 01:39:54;;;;;;;19.67;8.87;;;4.40;78.50;;;;;;5062014;28;20890;-48
2022/03/28 01:42:21;;;;;;;17.63;9.50;;;4.40;77.80;;;;;;5065918;28;21032;-48
2022/03/28 01:44:50;;;;;;;22.73;10.17;;;4.30;77.20;;;;;;5056750;28;20487;-48
2022/03/28 01:47:17;;;;;;;14.67;9.17;;;4.20;77.70;;;;;;5049710;28;20578;-48
2022/03/28 01:49:44;;;;;;;17.10;9.30;;;4.10;78.60;;;;;;5061627;28;20576;-48
2022/03/28 01:52:11;;;;;;;15.40;9.07;;;4.10;78.20;;;;;;5057201;28;20477;-49
2022/03/28 01:54:37;;;;;;;13.30;8.53;;;4.20;77.70;;;;;;5060248;28;20474;-48
2022/03/28 01:57:11;;;;;;;19.47;8.67;;;4.20;77.70;;;;;;5034743;28;20481;-48
2022/03/28 01:59:37;;;;;;;23.80;9.43;;;4.20;77.10;;;;;;5034991;28;20465;-48
2022/03/28 02:02:04;;;;;;;13.60;9.00;;;4.10;77.50;;;;;;5034172;28;20573;-48
2022/03/28 02:04:32;;;;;;;21.30;10.33;;;3.90;78.20;;;;;;5059955;28;20483;-47
2022/03/28 02:06:59;;;;;;;23.73;10.47;;;3.80;79.70;;;;;;5039258;28;21029;-48
2022/03/28 02:09:25;;;;;;;10.73;8.70;;;3.90;79.50;;;;;;5061660;28;20537;-48
2022/03/28 02:11:52;;;;;;;11.23;8.77;;;3.90;78.90;;;;;;5059594;28;20538;-48
2022/03/28 02:14:21;;;;;;;22.47;10.00;;;3.80;78.70;;;;;;5047663;28;20503;-48
2022/03/28 02:16:47;;;;;;;20.87;10.50;;;3.70;79.80;;;;;;5065793;28;20561;-48
2022/03/28 02:19:14;;;;;;;15.50;10.20;;;3.70;79.80;;;;;;5050287;28;20490;-48
2022/03/28 02:21:41;;;;;;;22.53;9.80;;;3.80;79.60;;;;;;5061924;28;20570;-48
2022/03/28 02:24:07;;;;;;;18.87;10.10;;;3.80;79.20;;;;;;5058440;28;20477;-48
2022/03/28 02:26:34;;;;;;;19.80;10.70;;;3.80;78.40;;;;;;5062081;28;20490;-48
2022/03/28 02:29:01;;;;;;;19.37;9.30;;;3.60;78.30;;;;;;5061571;28;20465;-48
2022/03/28 02:31:29;;;;;;;13.90;7.93;;;3.40;79.80;;;;;;5061731;28;20478;-48
2022/03/28 02:33:56;;;;;;;16.97;9.00;;;3.30;81.80;;;;;;5058615;28;20475;-47
2022/03/28 02:36:22;;;;;;;27.63;11.50;;;3.20;83.60;;;;;;5061547;28;20933;-47
2022/03/28 02:38:49;;;;;;;19.13;9.10;;;3.10;83.70;;;;;;5060392;28;20481;-47
2022/03/28 02:41:16;;;;;;;20.07;10.17;;;3.10;83.70;;;;;;5061183;28;20687;-47
2022/03/28 02:43:43;;;;;;;22.17;10.77;;;3.20;83.20;;;;;;5059107;28;20521;-48
2022/03/28 02:46:10;;;;;;;16.17;9.40;;;3.30;81.60;;;;;;5063461;28;21029;-47
2022/03/28 02:48:38;;;;;;;17.77;8.60;;;3.30;80.40;;;;;;5064441;28;20601;-47
2022/03/28 02:51:04;;;;;;;22.73;9.23;;;3.30;79.70;;;;;;5052038;28;20483;-47
2022/03/28 02:53:31;;;;;;;13.60;9.17;;;3.30;79.40;;;;;;5058263;28;20495;-47
2022/03/28 02:55:59;;;;;;;13.37;10.10;;;3.40;79.40;;;;;;5060611;28;20493;-47
2022/03/28 02:58:26;;;;;;;22.63;10.03;;;3.40;79.40;;;;;;5061963;28;20572;-47
2022/03/28 03:00:53;;;;;;;16.10;8.80;;;3.40;79.20;;;;;;5061278;28;20483;-47
2022/03/28 03:03:19;;;;;;;18.63;9.50;;;3.40;79.20;;;;;;5060129;28;20486;-47
2022/03/28 03:05:49;;;;;;;28.03;11.33;;;3.50;79.40;;;;;;5059733;28;20481;-48
2022/03/28 03:08:16;;;;;;;14.70;8.93;;;3.50;79.60;;;;;;5055140;28;20514;-47
2022/03/28 03:10:44;;;;;;;17.60;8.93;;;3.50;79.40;;;;;;5064221;28;20481;-48
2022/03/28 03:13:11;;;;;;;22.33;9.33;;;3.50;78.70;;;;;;5063696;28;20834;-47
2022/03/28 03:15:38;;;;;;;16.57;9.40;;;3.10;78.90;;;;;;5061947;28;20617;-47
2022/03/28 03:18:05;;;;;;;24.53;10.13;;;2.90;80.40;;;;;;5064801;28;20547;-47
2022/03/28 03:20:32;;;;;;;21.53;10.23;;;2.70;82.10;;;;;;5065485;28;21113;-47
2022/03/28 03:23:00;;;;;;;16.33;9.80;;;2.70;82.50;;;;;;5051702;28;20477;-47
2022/03/28 03:25:27;;;;;;;17.17;9.93;;;2.70;82.90;;;;;;5061564;28;20542;-47
2022/03/28 03:27:54;;;;;;;29.03;10.97;;;2.70;84.50;;;;;;5065111;28;20513;-47
2022/03/28 03:30:21;;;;;;;16.53;11.13;;;2.70;84.90;;;;;;5065547;28;20646;-47
2022/03/28 03:32:48;;;;;;;23.03;11.77;;;2.80;84.60;;;;;;5068560;28;20482;-47
2022/03/28 03:35:15;;;;;;;21.00;9.00;;;2.90;82.60;;;;;;5060312;28;20486;-47
2022/03/28 03:37:42;;;;;;;14.83;8.40;;;3.00;81.60;;;;;;5069405;28;20470;-47
2022/03/28 03:40:12;;;;;;;19.73;10.60;;;3.00;80.60;;;;;;5064811;28;20482;-47
2022/03/28 03:42:39;;;;;;;24.13;11.20;;;3.00;81.90;;;;;;5061704;28;21178;-47
2022/03/28 03:45:07;;;;;;;16.80;9.13;;;3.00;82.20;;;;;;5057344;28;20969;-47
2022/03/28 03:47:34;;;;;;;21.00;9.50;;;3.00;81.70;;;;;;5064912;28;20488;-47
2022/03/28 03:50:01;;;;;;;18.77;10.47;;;3.00;81.40;;;;;;5065073;28;20980;-47
2022/03/28 03:52:27;;;;;;;17.50;9.73;;;3.00;80.90;;;;;;5064664;28;20543;-47
2022/03/28 03:54:54;;;;;;;21.43;11.00;;;2.90;81.40;;;;;;5061062;28;20475;-47
2022/03/28 03:57:22;;;;;;;28.90;10.80;;;2.80;82.80;;;;;;5064641;28;20504;-47
2022/03/28 03:59:49;;;;;;;26.33;12.30;;;2.80;83.10;;;;;;5065207;28;20528;-47
2022/03/28 04:02:16;;;;;;;19.30;10.37;;;2.80;83.20;;;;;;5063335;28;20476;-50
2022/03/28 04:04:43;;;;;;;18.43;10.00;;;2.90;81.90;;;;;;5061441;28;20470;-47
2022/03/28 04:07:09;;;;;;;21.97;10.97;;;2.90;82.00;;;;;;5064368;28;20574;-46
2022/03/28 04:09:36;;;;;;;17.10;10.57;;;2.90;82.70;;;;;;5064964;28;20480;-46
2022/03/28 04:12:03;;;;;;;23.80;10.33;;;3.00;81.80;;;;;;5064237;28;20483;-47
2022/03/28 04:14:32;;;;;;;17.00;10.03;;;3.10;81.10;;;;;;5060772;28;20506;-47
2022/03/28 04:16:58;;;;;;;18.57;9.90;;;3.10;80.50;;;;;;5067085;28;20478;-46
2022/03/28 04:19:25;;;;;;;15.33;9.60;;;3.20;80.00;;;;;;5064723;28;20502;-48
2022/03/28 04:21:52;;;;;;;15.73;8.80;;;3.20;79.70;;;;;;5063401;28;20573;-48
2022/03/28 04:24:20;;;;;;;15.10;9.57;;;3.20;79.10;;;;;;5059874;28;20865;-48
2022/03/28 04:26:48;;;;;;;16.63;9.20;;;3.20;78.60;;;;;;5060999;28;20486;-47
2022/03/28 04:29:15;;;;;;;20.37;9.77;;;2.90;79.40;;;;;;5063904;28;20484;-47
2022/03/28 04:31:43;;;;;;;17.00;10.23;;;2.70;81.50;;;;;;5063646;28;20483;-46
2022/03/28 04:34:10;;;;;;;22.00;11.57;;;2.60;82.10;;;;;;5056227;28;20471;-46
2022/03/28 04:36:37;;;;;;;21.10;11.50;;;2.70;82.10;;;;;;5063821;28;20522;-46
2022/03/28 04:39:04;;;;;;;18.73;9.53;;;2.70;81.30;;;;;;5062496;28;20487;-46
2022/03/28 04:41:31;;;;;;;18.80;10.10;;;2.80;80.90;;;;;;5063108;28;20494;-46
2022/03/28 04:43:58;;;;;;;19.00;10.60;;;2.80;80.30;;;;;;5058911;28;20496;-47
2022/03/28 04:46:25;;;;;;;22.33;11.17;;;2.70;81.10;;;;;;5066778;28;20577;-47
2022/03/28 04:48:53;;;;;;;18.07;10.60;;;2.70;82.20;;;;;;5062886;28;20490;-46
2022/03/28 04:51:19;;;;;;;16.97;9.80;;;2.70;82.00;;;;;;5061494;28;20535;-47
2022/03/28 04:53:46;;;;;;;23.47;11.77;;;2.80;81.40;;;;;;5060858;28;20491;-47
2022/03/28 04:56:13;;;;;;;17.80;9.87;;;2.80;80.80;;;;;;5062034;28;20482;-46
2022/03/28 04:58:40;;;;;;;17.40;9.87;;;2.90;80.10;;;;;;5063970;28;20474;-46
2022/03/28 05:01:06;;;;;;;18.13;10.50;;;2.80;79.30;;;;;;5062178;28;20490;-47
2022/03/28 05:03:33;;;;;;;18.80;11.17;;;2.60;80.90;;;;;;5058938;28;20479;-46
2022/03/28 05:06:02;;;;;;;20.23;11.67;;;2.50;83.20;;;;;;5061748;28;20783;-47
2022/03/28 05:08:29;;;;;;;16.63;12.03;;;2.30;84.20;;;;;;5061721;28;20482;-47
2022/03/28 05:10:55;;;;;;;18.30;10.10;;;2.30;84.10;;;;;;5062621;28;20481;-47
2022/03/28 05:13:25;;;;;;;20.20;11.33;;;2.40;83.40;;;;;;5060770;28;21212;-47
2022/03/28 05:15:52;;;;;;;18.20;11.10;;;2.50;82.10;;;;;;5063679;28;20477;-47
2022/03/28 05:18:19;;;;;;;20.47;11.37;;;2.60;81.50;;;;;;5062318;28;21339;-50
2022/03/28 05:20:46;;;;;;;20.43;10.77;;;2.60;81.10;;;;;;5052364;28;20864;-47
2022/03/28 05:23:14;;;;;;;14.10;9.80;;;2.60;79.90;;;;;;5060727;28;20976;-47
2022/03/28 05:25:41;;;;;;;19.53;10.70;;;2.70;79.90;;;;;;5060080;28;20482;-47
2022/03/28 05:28:08;;;;;;;28.27;11.87;;;2.60;79.90;;;;;;5062380;28;20482;-48
2022/03/28 05:30:34;;;;;;;19.30;10.97;;;2.70;81.00;;;;;;5071447;28;20476;-47
2022/03/28 05:33:02;;;;;;;23.20;10.97;;;2.70;80.90;;;;;;5061959;28;20491;-47
2022/03/28 05:35:29;;;;;;;19.50;11.60;;;2.80;80.20;;;;;;5062187;28;20511;-48
2022/03/28 05:37:56;;;;;;;17.93;10.23;;;2.80;79.30;;;;;;5060391;28;20556;-47
2022/03/28 05:40:24;;;;;;;18.03;10.90;;;2.90;79.30;;;;;;5060774;28;20475;-47
2022/03/28 05:42:52;;;;;;;24.53;11.67;;;2.90;79.50;;;;;;5061050;28;20487;-48
2022/03/28 05:45:18;;;;;;;19.10;11.30;;;3.00;79.30;;;;;;5059771;28;20505;-50
2022/03/28 05:47:45;;;;;;;34.07;18.20;;;3.00;79.00;;;;;;5058736;28;20491;-48
2022/03/28 05:50:12;;;;;;;22.70;13.40;;;3.10;78.90;;;;;;5058607;28;20478;-47
2022/03/28 05:52:38;;;;;;;39.17;12.83;;;3.10;79.20;;;;;;5058807;28;20487;-47
2022/03/28 05:55:06;;;;;;;33.07;13.97;;;3.10;79.20;;;;;;5055249;28;20493;-48
2022/03/28 05:57:34;;;;;;;22.80;13.83;;;3.20;79.30;;;;;;5058802;28;20486;-47
2022/03/28 06:00:04;;;;;;;25.20;12.07;;;3.20;79.50;;;;;;5057856;28;20493;-47
2022/03/28 06:02:31;;;;;;;20.97;13.33;;;3.00;79.80;;;;;;5058560;28;20486;-47
2022/03/28 06:04:58;;;;;;;16.40;10.50;;;2.90;80.00;;;;;;5058843;28;20490;-48
2022/03/28 06:07:25;;;;;;;28.17;12.97;;;2.90;80.50;;;;;;5061711;28;20548;-48
2022/03/28 06:09:52;;;;;;;19.50;10.90;;;2.90;80.40;;;;;;5061258;28;20474;-48
2022/03/28 06:12:18;;;;;;;22.57;14.30;;;3.10;80.20;;;;;;5062142;28;20900;-47
2022/03/28 06:14:46;;;;;;;24.17;12.80;;;3.20;79.80;;;;;;5061195;28;20489;-48
2022/03/28 06:17:21;;;;;;;21.33;11.40;;;3.30;79.80;;;;;;5061507;28;20944;-47
2022/03/28 06:19:47;;;;;;;18.70;11.07;;;3.40;79.70;;;;;;5064164;28;20575;-48
2022/03/28 06:22:14;;;;;;;28.73;13.60;;;3.90;81.80;;;;;;5061820;28;20482;-47
2022/03/28 06:24:41;;;;;;;23.97;12.50;;;4.60;83.60;;;;;;5060749;28;20490;-48
2022/03/28 06:27:08;;;;;;;23.13;12.43;;;5.50;83.40;;;;;;5061065;28;20491;-48
2022/03/28 06:29:35;;;;;;;26.87;13.27;;;6.70;79.50;;;;;;5060128;28;21543;-48
2022/03/28 06:32:04;;;;;;;17.07;10.10;;;7.50;77.10;;;;;;5059328;28;20501;-47
2022/03/28 06:34:31;;;;;;;27.97;17.10;;;8.20;75.30;;;;;;5059950;28;21009;-48
2022/03/28 06:36:57;;;;;;;32.40;17.70;;;9.30;72.80;;;;;;5061573;28;21329;-48
2022/03/28 06:39:24;;;;;;;27.57;14.93;;;10.00;70.10;;;;;;5062985;28;20538;-48
2022/03/28 06:41:51;;;;;;;21.07;14.20;;;10.60;69.10;;;;;;5062584;28;20478;-47
2022/03/28 06:44:18;;;;;;;41.07;20.60;;;11.60;68.20;;;;;;5059341;28;20512;-47
2022/03/28 06:46:45;;;;;;;37.77;20.70;;;11.70;68.50;;;;;;5061171;28;20478;-49
2022/03/28 06:49:13;;;;;;;25.93;17.03;;;12.90;66.70;;;;;;5060727;28;20784;-47
2022/03/28 06:51:40;;;;;;;20.97;15.57;;;13.80;65.30;;;;;;5061520;28;20479;-48
2022/03/28 06:54:08;;;;;;;27.17;18.53;;;14.10;64.70;;;;;;5059126;28;20504;-48
2022/03/28 06:56:36;;;;;;;17.63;13.70;;;15.10;63.60;;;;;;5062642;28;20482;-48
2022/03/28 06:59:03;;;;;;;23.43;16.30;;;15.40;63.20;;;;;;5061201;28;21003;-48
2022/03/28 07:01:30;;;;;;;26.50;15.10;;;16.20;61.60;;;;;;5062073;28;20480;-48
2022/03/28 07:03:57;;;;;;;20.13;13.43;;;;;;;;;;5059275;28;20493;-48
2022/03/28 07:06:25;;;;;;;23.83;14.10;;;16.80;60.90;;;;;;5061798;28;20845;-49
2022/03/28 07:08:53;;;;;;;16.57;13.23;;;17.30;61.00;;;;;;5060804;28;20480;-48
2022/03/28 07:11:20;;;;;;;18.57;13.83;;;18.20;59.20;;;;;;5055513;28;20558;-48
2022/03/28 07:13:47;;;;;;;17.57;13.23;;;18.20;59.70;;;;;;5060617;28;20973;-49
2022/03/28 07:16:14;;;;;;;19.30;13.90;;;18.50;59.70;;;;;;5060156;28;20997;-48
2022/03/28 07:18:40;;;;;;;21.17;14.83;;;19.10;57.90;;;;;;5062470;28;20482;-48
2022/03/28 07:21:07;;;;;;;19.30;14.23;;;19.10;58.40;;;;;;5059565;28;20553;-48
2022/03/28 07:23:35;;;;;;;18.07;13.43;;;19.50;57.90;;;;;;5059738;28;20583;-48
2022/03/28 07:26:02;;;;;;;21.67;13.23;;;19.80;58.90;;;;;;5055135;28;20485;-48
2022/03/28 07:28:29;;;;;;;15.70;12.90;;;19.90;58.70;;;;;;5061112;28;20498;-49
2022/03/28 07:30:56;;;;;;;20.40;13.97;;;20.00;58.50;;;;;;5061754;28;20476;-49
2022/03/28 07:33:24;;;;;;;16.30;13.27;;;20.00;58.40;;;;;;5062825;28;20482;-48
2022/03/28 07:35:50;;;;;;;18.33;13.20;;;20.00;59.00;;;;;;5032598;28;20482;-48
2022/03/28 07:38:18;;;;;;;18.63;14.07;;;19.90;58.60;;;;;;5057888;28;20475;-48
2022/03/28 07:40:47;;;;;;;20.37;12.80;;;19.80;59.10;;;;;;5060327;28;20492;-49
2022/03/28 07:43:14;;;;;;;18.37;13.63;;;19.70;59.50;;;;;;5059214;28;20831;-48
2022/03/28 07:45:40;;;;;;;19.10;15.40;;;19.60;59.90;;;;;;5058470;28;20494;-48
2022/03/28 07:48:07;;;;;;;21.13;13.97;;;19.40;60.90;;;;;;5059923;28;20479;-48
2022/03/28 07:50:35;;;;;;;19.83;14.17;;;19.40;61.50;;;;;;5061597;28;20479;-49
2022/03/28 07:53:02;;;;;;;22.23;13.70;;;19.30;61.50;;;;;;5064247;28;20776;-48
2022/03/28 07:55:28;;;;;;;17.07;15.27;;;19.00;62.40;;;;;;5063687;28;20556;-48
2022/03/28 07:57:59;;;;;;;19.37;13.33;;;19.00;63.20;;;;;;5064147;28;20489;-48
2022/03/28 08:00:28;;;;;;;21.30;14.60;;;18.90;62.40;;;;;;5036456;28;20851;-50
2022/03/28 08:02:55;;;;;;;21.53;14.20;;;18.90;63.30;;;;;;5064785;28;20954;-48
2022/03/28 08:05:22;;;;;;;17.70;14.73;;;18.90;62.70;;;;;;5035146;28;20471;-48
2022/03/28 08:07:49;;;;;;;26.13;15.30;;;18.70;64.20;;;;;;5064011;28;21495;-48
2022/03/28 08:10:17;;;;;;;23.60;16.30;;;18.60;66.00;;;;;;5063938;28;20726;-48
2022/03/28 08:12:43;;;;;;;20.17;16.10;;;18.60;66.60;;;;;;5059382;28;20910;-48
2022/03/28 08:15:13;;;;;;;21.87;16.10;;;18.60;65.60;;;;;;5048092;28;20487;-49
2022/03/28 08:17:41;;;;;;;29.70;16.50;;;18.70;67.30;;;;;;5061506;28;20487;-48
2022/03/28 08:20:10;;;;;;;25.43;15.90;;;18.70;67.60;;;;;;5060522;28;20566;-48
2022/03/28 08:22:37;;;;;;;26.90;16.10;;;18.50;66.00;;;;;;5061821;28;20475;-48
2022/03/28 08:25:05;;;;;;;30.07;15.83;;;18.20;66.10;;;;;;5063645;28;20537;-48
2022/03/28 08:27:32;;;;;;;18.00;14.57;;;18.20;66.80;;;;;;5064332;28;20487;-49
2022/03/28 08:29:58;;;;;;;24.70;17.13;;;18.20;68.10;;;;;;5064749;28;22038;-49
2022/03/28 08:32:27;;;;;;;26.40;16.27;;;18.60;69.60;;;;;;5069500;28;20487;-49
2022/03/28 08:34:53;;;;;;;24.13;17.43;;;18.60;70.00;;;;;;5032311;28;20463;-48
2022/03/28 08:37:21;;;;;;;24.90;16.60;;;18.80;69.30;;;;;;5063089;28;20473;-48
2022/03/28 08:39:49;;;;;;;28.73;16.03;;;18.80;69.10;;;;;;5052524;28;20490;-49
2022/03/28 08:42:17;;;;;;;24.90;16.23;;;18.80;69.50;;;;;;5061732;28;20479;-48
2022/03/28 08:44:44;;;;;;;29.43;17.27;;;18.90;69.00;;;;;;5057561;28;20498;-49
2022/03/28 08:47:13;;;;;;;20.30;16.27;;;19.20;69.00;;;;;;5059856;28;20478;-49
2022/03/28 08:49:41;;;;;;;25.90;16.67;;;19.20;69.50;;;;;;5063251;28;20503;-49
2022/03/28 08:52:08;;;;;;;28.07;16.90;;;19.00;65.70;;;;;;5059549;28;20890;-49
2022/03/28 08:54:35;;;;;;;26.53;15.60;;;19.00;66.30;;;;;;5060722;28;20907;-49
2022/03/28 08:57:02;;;;;;;25.70;15.73;;;18.70;66.90;;;;;;5061849;28;21113;-49
2022/03/28 08:59:29;;;;;;;19.87;14.57;;;18.60;64.70;;;;;;5063515;28;20489;-48
2022/03/28 09:01:55;;;;;;;22.43;14.03;;;18.50;63.90;;;;;;5061788;28;20478;-48
2022/03/28 09:04:22;;;;;;;31.70;18.53;;;18.60;64.10;;;;;;5061703;28;20471;-48
2022/03/28 09:06:50;;;;;;;23.67;16.03;;;18.30;62.20;;;;;;5062969;28;20888;-49
2022/03/28 09:09:19;;;;;;;27.63;16.20;;;18.30;62.80;;;;;;5062994;28;20502;-48
2022/03/28 09:11:48;;;;;;;28.83;16.97;;;18.20;64.00;;;;;;5063368;28;21022;-49
2022/03/28 09:14:25;;;;;;;42.43;16.77;;;18.30;64.30;;;;;;5061535;28;20471;-49
2022/03/28 09:17:06;;;;;;;27.20;15.50;;;18.00;65.30;;;;;;5061500;28;20558;-49
2022/03/28 09:19:47;;;;;;;33.70;15.30;;;18.00;65.60;;;;;;5052205;28;20509;-49
2022/03/28 09:22:19;;;;;;;25.40;14.40;;;18.00;63.70;;;;;;5057447;28;20566;-50
2022/03/28 09:24:47;;;;;;;23.63;14.60;;;18.20;63.60;;;;;;5059260;28;20479;-50
2022/03/28 09:27:16;;;;;;;22.37;15.00;;;18.20;64.30;;;;;;5057172;28;20485;-49
2022/03/28 09:29:54;;;;;;;27.80;15.60;;;18.30;64.50;;;;;;5062901;28;20540;-48
2022/03/28 09:32:22;;;;;;;26.30;15.60;;;18.50;64.10;;;;;;5049607;28;20944;-54
2022/03/28 09:35:09;;;;;;;25.60;14.57;;;18.50;64.70;;;;;;5062464;28;20478;-48
2022/03/28 09:38:01;;;;;;;23.63;15.53;;;18.70;66.30;;;;;;5060279;28;21012;-49
2022/03/28 09:40:37;;;;;;;23.37;14.87;;;19.00;64.50;;;;;;5059436;28;20517;-48
2022/03/28 09:43:07;;;;;;;31.43;15.90;;;19.10;65.50;;;;;;5048760;28;20482;-54
2022/03/28 09:45:38;;;;;;;25.07;15.60;;;19.20;63.40;;;;;;5061867;28;20487;-51
2022/03/28 09:48:07;;;;;;;23.63;14.87;;;19.20;63.00;;;;;;5033562;28;20841;-50
2022/03/28 09:50:38;;;;;;;21.53;15.93;;;19.30;64.30;;;;;;5061684;28;21120;-49
2022/03/28 09:53:25;;;;;;;27.40;16.27;;;19.30;61.60;;;;;;5038814;28;20563;-50
2022/03/28 09:55:56;;;;;;;23.23;14.87;;;19.50;62.50;;;;;;5046692;28;20846;-49
2022/03/28 09:58:43;;;;;;;34.33;16.90;;;19.60;60.00;;;;;;5061065;28;20869;-49
2022/03/28 10:01:14;;;;;;;22.57;15.20;;;19.50;59.40;;;;;;5050586;28;20477;-49
2022/03/28 10:03:43;;;;;;;31.00;15.90;;;19.80;59.50;;;;;;5061579;28;20484;-50
2022/03/28 10:06:10;;;;;;;26.10;15.13;;;19.90;59.90;;;;;;5060700;28;20479;-49
2022/03/28 10:08:38;;;;;;;24.43;15.53;;;19.90;59.60;;;;;;5062607;28;20479;-49
2022/03/28 10:11:06;;;;;;;30.63;15.20;;;20.00;60.60;;;;;;5060840;28;20561;-49
2022/03/28 10:13:33;;;;;;;23.10;14.80;;;20.10;61.50;;;;;;5061119;28;20487;-49
2022/03/28 10:16:02;;;;;;;25.33;14.57;;;20.20;60.10;;;;;;5061372;28;20475;-49
2022/03/28 10:18:29;;;;;;;28.60;15.63;;;20.40;60.30;;;;;;5062575;28;20478;-49
2022/03/28 10:20:58;;;;;;;32.50;15.10;;;20.40;58.70;;;;;;5060351;28;20570;-49
2022/03/28 10:23:30;;;;;;;27.23;14.67;;;20.40;60.70;;;;;;5057754;28;20487;-49
2022/03/28 10:26:00;;;;;;;24.40;14.87;;;20.60;60.30;;;;;;5061759;28;20479;-49
2022/03/28 10:28:27;;;;;;;19.87;13.70;;;20.60;59.10;;;;;;5061820;28;20474;-49
2022/03/28 10:31:14;;;;;;;42.10;16.67;;;20.70;58.70;;;;;;5061463;28;20490;-49
2022/03/28 10:33:49;;;;;;;33.63;14.47;;;20.80;59.80;;;;;;5056523;28;20481;-50
2022/03/28 10:36:28;;;;;;;29.10;16.83;;;20.80;58.60;;;;;;5060143;28;20539;-49
2022/03/28 10:38:58;;;;;;;26.53;16.03;;;20.90;62.50;;;;;;5061292;28;20553;-50
2022/03/28 10:41:28;;;;;;;24.73;14.37;;;20.80;59.40;;;;;;5060831;28;20474;-50
2022/03/28 10:44:04;;;;;;;23.60;14.80;;;20.80;57.80;;;;;;5057583;28;20482;-49
2022/03/28 10:46:36;;;;;;;22.60;13.70;;;21.00;59.40;;;;;;5057975;28;20488;-49
2022/03/28 10:49:06;;;;;;;25.70;14.70;;;21.20;59.70;;;;;;5060976;28;20510;-49
2022/03/28 10:51:32;;;;;;;24.40;15.43;;;21.20;58.70;;;;;;5057811;28;20472;-49
2022/03/28 10:54:01;;;;;;;30.47;15.97;;;21.30;57.00;;;;;;5059154;28;20493;-49
2022/03/28 10:56:32;;;;;;;23.30;14.37;;;21.10;57.50;;;;;;5061687;28;20823;-50
2022/03/28 10:59:01;;;;;;;21.90;14.47;;;21.00;58.10;;;;;;5061120;28;20484;-50
2022/03/28 11:01:30;;;;;;;24.47;14.70;;;21.30;59.20;;;;;;5061590;28;20568;-50
2022/03/28 11:04:00;;;;;;;24.97;12.83;;;21.70;61.10;;;;;;5059790;28;22057;-51
2022/03/28 11:07:03;;;;;;;25.40;14.90;;;22.00;58.00;;;;;;5061877;28;20506;-50
2022/03/28 11:09:45;;;;;;;18.60;13.47;;;22.20;57.60;;;;;;5055201;28;20463;-50
2022/03/28 11:12:15;;;;;;;29.40;15.27;;;22.40;56.70;;;;;;5060492;28;20482;-50
2022/03/28 11:14:45;;;;;;;23.57;14.67;;;22.50;56.70;;;;;;5061123;28;20482;-50
2022/03/28 11:17:20;;;;;;;28.70;14.70;;;22.60;55.80;;;;;;5058484;28;20483;-50
2022/03/28 11:19:58;;;;;;;20.60;13.43;;;22.70;56.20;;;;;;5059446;28;21044;-53
2022/03/28 11:22:48;;;;;;;24.10;14.40;;;22.60;54.60;;;;;;5069028;28;20493;-50
2022/03/28 11:25:39;;;;;;;25.27;15.33;;;22.60;56.00;;;;;;5060285;28;20482;-50
2022/03/28 11:28:10;;;;;;;38.43;25.47;;;22.60;53.80;;;;;;5036371;28;20582;-50
2022/03/28 11:30:39;;;;;;;20.80;14.13;;;;;;;;;;5063603;28;20871;-50
2022/03/28 11:33:11;;;;;;;19.93;12.33;;;22.80;55.30;;;;;;5036662;28;20553;-50
2022/03/28 11:35:39;;;;;;;19.57;13.93;;;22.80;55.60;;;;;;5037338;28;20558;-50
2022/03/28 11:38:06;;;;;;;35.40;16.03;;;22.70;51.90;;;;;;5056988;28;21066;-50
2022/03/28 11:40:40;;;;;;;23.33;13.10;;;22.50;52.30;;;;;;5039700;28;20490;-51
2022/03/28 11:43:09;;;;;;;21.90;13.97;;;22.60;52.00;;;;;;5059278;28;20478;-50
2022/03/28 11:45:37;;;;;;;29.73;14.73;;;22.60;51.20;;;;;;5056101;28;20476;-52
2022/03/28 11:48:04;;;;;;;17.70;13.57;;;22.80;50.40;;;;;;5061841;28;20474;-50
2022/03/28 11:50:31;;;;;;;22.37;13.63;;;22.70;48.90;;;;;;5064638;28;20920;-50
2022/03/28 11:52:58;;;;;;;25.83;14.43;;;23.00;51.00;;;;;;5061763;28;20543;-51
2022/03/28 11:55:29;;;;;;;24.50;13.47;;;22.80;51.40;;;;;;5063171;28;20486;-51
2022/03/28 12:00:45;;;;;;;22.63;12.43;;;22.80;50.10;;;;;;5044762;28;20523;-50
2022/03/28 12:03:13;;;;;;;29.30;14.07;;;23.10;50.90;;;;;;5047121;28;20471;-51
2022/03/28 12:05:41;;;;;;;21.17;12.77;;;23.20;47.80;;;;;;5049010;28;20483;-53
2022/03/28 12:08:10;;;;;;;16.10;11.40;;;23.40;46.30;;;;;;5047660;28;20491;-50
2022/03/28 12:10:39;;;;;;;16.60;11.87;;;23.60;43.50;;;;;;5050324;28;20486;-51
2022/03/28 12:13:07;;;;;;;19.30;12.70;;;23.70;43.90;;;;;;5055875;28;20562;-51
2022/03/28 12:15:36;;;;;;;23.33;11.40;;;24.00;47.30;;;;;;5043530;28;20485;-54
2022/03/28 12:18:06;;;;;;;34.97;11.90;;;24.30;45.10;;;;;;5055778;28;20501;-54
2022/03/28 12:20:36;;;;;;;17.70;10.83;;;24.30;43.90;;;;;;5051253;28;20514;-52
2022/03/28 12:23:05;;;;;;;23.73;13.40;;;24.20;41.60;;;;;;5051176;28;20483;-51
2022/03/28 12:25:35;;;;;;;20.70;10.83;;;24.10;42.50;;;;;;5062780;28;20490;-51
2022/03/28 12:28:05;;;;;;;21.27;13.63;;;24.20;42.30;;;;;;5050109;28;20493;-51
2022/03/28 12:30:35;;;;;;;24.47;12.57;;;24.30;43.50;;;;;;5059613;28;21003;-51
2022/03/28 12:33:15;;;;;;;24.10;13.20;;;24.40;45.40;;;;;;5065528;28;20578;-51
2022/03/28 12:35:44;;;;;;;21.33;11.30;;;24.50;43.70;;;;;;5062812;28;20469;-51
2022/03/28 12:38:16;;;;;;;16.33;12.50;;;24.60;41.30;;;;;;5060835;28;20471;-51
2022/03/28 12:40:44;;;;;;;24.70;12.17;;;24.60;41.10;;;;;;5051354;28;20475;-52
2022/03/28 12:43:12;;;;;;;35.77;13.77;;;24.30;45.40;;;;;;5038852;28;20518;-52
2022/03/28 12:45:39;;;;;;;16.40;11.47;;;24.20;43.40;;;;;;5055916;28;20479;-53
2022/03/28 12:48:08;;;;;;;18.10;11.70;;;24.30;42.70;;;;;;5054010;28;20959;-53